createdAt,value
2022-09-29T00:04:26.493Z,0
2022-09-29T00:09:49.901Z,0
2022-09-29T00:20:37.485Z,0
2022-09-29T00:25:59.760Z,0
2022-09-29T00:31:22.569Z,0
2022-09-29T00:36:47.998Z,3
2022-09-29T00:42:10.712Z,0
2022-09-29T00:47:33.369Z,0
2022-09-29T00:52:55.769Z,0
2022-09-29T00:58:18.103Z,0
2022-09-29T01:03:43.100Z,0
2022-09-29T01:09:05.763Z,0
2022-09-29T01:14:38.414Z,0
2022-09-29T01:20:05.530Z,0
2022-09-29T01:25:28.197Z,0
2022-09-29T01:30:53.327Z,0
2022-09-29T01:36:15.803Z,0
2022-09-29T01:41:40.574Z,0
2022-09-29T01:47:02.972Z,0
2022-09-29T01:52:25.249Z,0
2022-09-29T02:08:41.298Z,0
2022-09-29T02:14:09.868Z,0
2022-09-29T02:19:32.624Z,0
2022-09-29T02:24:55.522Z,0
2022-09-29T02:30:18.031Z,2
2022-09-29T02:35:42.894Z,0
2022-09-29T02:41:05.856Z,0
2022-09-29T02:46:34.062Z,0
2022-09-29T02:51:56.436Z,0
2022-09-29T03:03:28.847Z,1
2022-09-29T03:08:51.549Z,0
2022-09-29T03:14:13.788Z,0
2022-09-29T03:19:36.133Z,0
2022-09-29T03:24:58.533Z,0
2022-09-29T03:41:10.951Z,0
2022-09-29T03:46:33.637Z,0
2022-09-29T03:51:59.542Z,0
2022-09-29T03:57:22.264Z,0
2022-09-29T04:02:44.554Z,0
2022-09-29T04:08:09.839Z,0
2022-09-29T04:13:32.686Z,0
2022-09-29T04:18:57.525Z,0
2022-09-29T04:24:20.019Z,0
2022-09-29T04:29:42.340Z,0
2022-09-29T04:35:25.941Z,0
2022-09-29T04:40:51.355Z,3
2022-09-29T04:46:14.263Z,0
2022-09-29T04:51:40.564Z,0
2022-09-29T04:57:08.524Z,3
2022-09-29T05:02:31.903Z,0
2022-09-29T05:07:54.445Z,0
2022-09-29T05:13:17.212Z,0
2022-09-29T05:18:39.785Z,4
2022-09-29T05:24:11.150Z,19
2022-09-29T05:34:56.420Z,33.2
2022-09-29T05:40:19.247Z,40.8
2022-09-29T05:45:42.450Z,57.1
2022-09-29T05:51:05.156Z,70.2
2022-09-29T05:56:27.502Z,95.1
2022-09-29T06:01:50.725Z,113
2022-09-29T06:07:16.491Z,156.5
2022-09-29T06:12:38.959Z,140.4
2022-09-29T06:18:01.501Z,165.2
2022-09-29T06:23:23.958Z,125.4
2022-09-29T06:28:46.424Z,108.2
2022-09-29T06:34:08.530Z,117.5
2022-09-29T06:39:31.226Z,107.2
2022-09-29T06:44:53.937Z,120.8
2022-09-29T06:50:23.487Z,230.4
2022-09-29T06:55:47.262Z,245.1
2022-09-29T07:01:10.467Z,194.6
2022-09-29T07:11:55.830Z,248.4
2022-09-29T07:17:24.263Z,264
2022-09-29T07:22:57.286Z,304.5
2022-09-29T07:28:20.162Z,354.4
2022-09-29T07:33:43.347Z,425.1
2022-09-29T07:39:06.098Z,358.3
2022-09-29T07:44:29.119Z,367.2
2022-09-29T07:49:51.735Z,408.4
2022-09-29T07:55:14.791Z,423.1
2022-09-29T08:00:37.583Z,423.8
2022-09-29T08:05:59.987Z,859.4
2022-09-29T08:11:33.328Z,556.9
2022-09-29T08:16:57.273Z,1200.8
2022-09-29T08:22:24.133Z,3697.1
2022-09-29T08:27:56.238Z,4106
2022-09-29T08:33:20.630Z,3485.1
2022-09-29T08:38:43.717Z,3448.7
2022-09-29T08:44:12.337Z,3113.5
2022-09-29T08:55:22.442Z,3214.9
2022-09-29T09:00:45.880Z,3331.5
2022-09-29T09:06:11.842Z,3374.8
2022-09-29T09:11:34.439Z,3056.4
2022-09-29T09:22:23.364Z,1296.2
2022-09-29T09:27:45.991Z,1687.4
2022-09-29T09:33:08.639Z,3015.2
2022-09-29T09:38:34.607Z,3038.5
2022-09-29T09:43:59.711Z,3386.5
2022-09-29T09:49:22.509Z,3467.7
2022-09-29T09:54:48.142Z,3382.8
2022-09-29T10:00:15.570Z,3656.2
2022-09-29T10:05:38.204Z,3524.8
2022-09-29T10:11:00.802Z,3506.6
2022-09-29T10:16:24.322Z,3814.7
2022-09-29T10:21:52.716Z,614
2022-09-29T10:27:15.525Z,3445.4
2022-09-29T10:38:05.291Z,3527.8
2022-09-29T10:43:27.350Z,3499.5
2022-09-29T10:54:17.373Z,3929.4
2022-09-29T10:59:40.667Z,3607.8
2022-09-29T11:05:03.714Z,3679.8
2022-09-29T11:10:26.463Z,1666.7
2022-09-29T11:15:53.932Z,949.4
2022-09-29T11:21:14.421Z,640.9
2022-09-29T11:26:36.607Z,602.7
2022-09-29T11:31:59.830Z,721.1
2022-09-29T11:42:54.043Z,3686.7
2022-09-29T11:48:18.368Z,3958.8
2022-09-29T11:53:44.575Z,3784.1
2022-09-29T11:59:07.399Z,3638.1
2022-09-29T12:04:30.324Z,3956.8
2022-09-29T12:15:13.419Z,814.8
2022-09-29T12:20:34.480Z,1540.3
2022-09-29T12:26:08.026Z,2483
2022-09-29T12:31:32.664Z,4448.6
2022-09-29T12:37:24.066Z,4265.7
2022-09-29T12:42:47.646Z,4195.6
2022-09-29T12:48:08.738Z,1479.8
2022-09-29T12:53:32.213Z,717.5
2022-09-29T12:58:52.745Z,675.2
2022-09-29T13:04:15.833Z,768.5
2022-09-29T13:18:06.864Z,415.5
2022-09-29T13:23:28.941Z,388.1
2022-09-29T13:29:18.441Z,401.9
2022-09-29T13:34:48.319Z,440
2022-09-29T13:40:12.042Z,471.4
2022-09-29T13:45:35.470Z,472.3
2022-09-29T13:51:05.728Z,467
2022-09-29T13:56:31.363Z,444.1
2022-09-29T14:01:54.154Z,449.9
2022-09-29T14:07:16.720Z,445.1
2022-09-29T14:12:39.128Z,430.2
2022-09-29T14:18:01.366Z,447.1
2022-09-29T14:23:30.478Z,445.3
2022-09-29T14:28:52.931Z,428.8
2022-09-29T14:34:16.222Z,468.9
2022-09-29T14:39:39.826Z,500.1
2022-09-29T14:45:03.565Z,543.5
2022-09-29T14:50:26.840Z,1472.4
2022-09-29T14:55:51.815Z,993.8
2022-09-29T15:12:02.065Z,401.6
2022-09-29T15:17:24.386Z,309.2
2022-09-29T15:22:49.345Z,227.7
2022-09-29T15:28:15.196Z,192.8
2022-09-29T15:33:40.514Z,179.3
2022-09-29T15:39:02.957Z,163.4
2022-09-29T15:44:28.528Z,130.7
2022-09-29T15:49:50.981Z,124.5
2022-09-29T15:55:24.040Z,106.5
2022-09-29T16:00:46.769Z,109.3
2022-09-29T16:06:09.010Z,87.6
2022-09-29T16:11:31.591Z,94.8
2022-09-29T16:16:54.095Z,82.6
2022-09-29T16:22:16.548Z,76.5
2022-09-29T16:27:39.423Z,74.4
2022-09-29T16:33:14.210Z,73.6
2022-09-29T16:38:36.949Z,63.5
2022-09-29T16:43:59.324Z,59
2022-09-29T16:49:21.732Z,59.5
2022-09-29T17:00:51.052Z,50.2
2022-09-29T17:06:21.072Z,42.4
2022-09-29T17:17:05.810Z,20.2
2022-09-29T17:22:28.183Z,14
2022-09-29T17:27:51.447Z,6
2022-09-29T17:33:14.454Z,0
2022-09-29T17:39:00.582Z,0
2022-09-29T17:44:23.111Z,0
2022-09-29T17:49:45.899Z,0
2022-09-29T17:55:08.978Z,0
2022-09-29T18:00:47.055Z,0
2022-09-29T18:06:11.346Z,0
2022-09-29T18:11:33.783Z,0
2022-09-29T18:16:56.048Z,0
2022-09-29T18:22:18.689Z,0
2022-09-29T18:27:41.133Z,0
2022-09-29T18:33:03.478Z,0
2022-09-29T18:38:43.867Z,0
2022-09-29T18:44:06.359Z,0
2022-09-29T18:49:31.083Z,0
2022-09-29T18:55:11.301Z,0
2022-09-29T19:05:44.647Z,0
2022-09-29T19:11:07.147Z,0
2022-09-29T19:16:30.092Z,0
2022-09-29T19:21:52.913Z,0
2022-09-29T19:32:41.064Z,0
2022-09-29T19:38:03.654Z,0
2022-09-29T19:43:26.126Z,0
2022-09-29T19:48:48.558Z,1
2022-09-29T19:54:26.036Z,0
2022-09-29T19:59:48.786Z,0
2022-09-29T20:05:11.320Z,0
2022-09-29T20:10:35.058Z,0
2022-09-29T20:16:07.185Z,0
2022-09-29T20:21:32.834Z,0
2022-09-29T20:26:55.220Z,0
2022-09-29T20:32:17.429Z,0
2022-09-29T20:37:39.786Z,0
2022-09-29T20:53:50.454Z,0
2022-09-29T20:59:12.738Z,0
2022-09-29T21:04:35.823Z,0
2022-09-29T21:09:58.310Z,0
2022-09-29T21:15:20.721Z,0
2022-09-29T21:20:43.003Z,0
2022-09-29T21:26:08.191Z,0
2022-09-29T21:31:31.076Z,0
2022-09-29T21:36:53.564Z,2
2022-09-29T21:42:21.092Z,0
2022-09-29T21:47:44.123Z,0
2022-09-29T21:53:06.443Z,0
2022-09-29T21:58:29.115Z,1
2022-09-29T22:03:53.907Z,1
2022-09-29T22:09:16.628Z,0
2022-09-29T22:14:39.375Z,0
2022-09-29T22:20:04.675Z,0
2022-09-29T22:25:33.464Z,0
2022-09-29T22:30:56.186Z,0
2022-09-29T22:36:19.611Z,0
2022-09-29T22:41:42.698Z,0
2022-09-29T22:47:04.951Z,0
2022-09-29T22:52:27.358Z,0
2022-09-29T23:14:04.755Z,0
2022-09-29T23:30:13.554Z,0
2022-09-29T23:35:35.858Z,0
2022-09-29T23:40:58.090Z,0
2022-09-29T23:46:23.344Z,0
2022-09-29T23:51:45.925Z,0
2022-09-29T23:57:08.357Z,0
